Time;durP1;ratioP1;P1;durP2;ratioP2;P2;SDS_P1;SDS_P2;PMS_P1;PMS_P2;Temp;Humidity;BMP_temperature;BMP_pressure;BME280_temperature;BME280_humidity;BME280_pressure;Samples;Min_cycle;Max_cycle;Signal;HPM_P1;HPM_P2
2022/09/28 00:00:55;;;;;;;0.40;0.30;;;9.00;99.90;;;;;;5060225;28;20548;-76
2022/09/28 00:03:23;;;;;;;0.40;0.20;;;9.00;99.90;;;;;;5062518;28;20906;-75
2022/09/28 00:05:50;;;;;;;0.30;0.20;;;9.00;99.90;;;;;;5062298;28;20459;-75
2022/09/28 00:08:17;;;;;;;0.30;0.20;;;8.90;99.90;;;;;;5060612;28;20544;-75
2022/09/28 00:10:45;;;;;;;0.40;0.20;;;8.90;99.90;;;;;;5062591;28;20783;-76
2022/09/28 00:13:12;;;;;;;0.30;0.20;;;8.80;99.90;;;;;;5061441;28;20792;-76
2022/09/28 00:15:39;;;;;;;0.40;0.20;;;8.80;99.90;;;;;;5062269;28;20494;-76
2022/09/28 00:18:06;;;;;;;0.40;0.20;;;8.70;99.90;;;;;;5060850;28;20506;-76
2022/09/28 00:20:34;;;;;;;0.40;0.20;;;8.60;99.90;;;;;;5062085;28;20770;-75
2022/09/28 00:23:01;;;;;;;0.50;0.27;;;8.50;99.90;;;;;;5056943;28;20840;-76
2022/09/28 00:25:28;;;;;;;0.40;0.30;;;8.50;99.90;;;;;;5061974;28;20491;-76
2022/09/28 00:27:56;;;;;;;0.40;0.20;;;8.50;99.90;;;;;;5060653;28;20471;-76
2022/09/28 00:30:23;;;;;;;0.40;0.20;;;8.40;99.90;;;;;;5064814;28;20863;-76
2022/09/28 00:32:50;;;;;;;0.50;0.30;;;8.40;99.90;;;;;;5064293;28;20658;-76
2022/09/28 00:35:18;;;;;;;0.30;0.20;;;8.30;99.90;;;;;;5066461;28;20466;-76
2022/09/28 00:37:49;;;;;;;0.40;0.20;;;8.20;99.90;;;;;;5062045;28;20511;-76
2022/09/28 00:40:17;;;;;;;2.20;0.27;;;8.10;99.90;;;;;;5063442;28;20471;-76
2022/09/28 00:42:44;;;;;;;0.40;0.20;;;8.00;99.90;;;;;;5065567;28;20927;-76
2022/09/28 00:45:11;;;;;;;0.40;0.20;;;8.00;99.90;;;;;;5062275;28;20487;-76
2022/09/28 00:47:50;;;;;;;0.40;0.20;;;7.90;99.90;;;;;;5064501;28;20463;-76
2022/09/28 00:50:24;;;;;;;0.30;0.20;;;7.90;99.90;;;;;;5066009;28;20485;-75
2022/09/28 00:52:57;;;;;;;0.30;0.20;;;8.00;99.90;;;;;;5063759;28;20932;-75
2022/09/28 00:55:30;;;;;;;1.53;0.20;;;8.10;99.90;;;;;;5067171;28;20512;-75
2022/09/28 00:58:03;;;;;;;0.40;0.20;;;8.20;99.90;;;;;;5062400;28;20486;-76
2022/09/28 01:00:30;;;;;;;0.40;0.20;;;8.30;99.90;;;;;;5063729;28;20525;-76
2022/09/28 01:02:58;;;;;;;0.40;0.20;;;8.30;99.90;;;;;;5062659;28;20509;-76
2022/09/28 01:05:26;;;;;;;0.43;0.20;;;8.30;99.90;;;;;;5063834;28;20478;-75
2022/09/28 01:07:56;;;;;;;0.30;0.20;;;8.40;99.90;;;;;;5063704;28;20455;-76
2022/09/28 01:10:23;;;;;;;0.40;0.20;;;8.40;99.90;;;;;;5066690;28;20470;-76
2022/09/28 01:12:50;;;;;;;0.63;0.30;;;8.40;99.90;;;;;;5061174;28;20482;-76
2022/09/28 01:15:20;;;;;;;0.40;0.30;;;8.50;99.90;;;;;;5066205;28;20487;-76
2022/09/28 01:18:06;;;;;;;0.50;0.30;;;8.50;99.90;;;;;;5067097;28;20474;-76
2022/09/28 01:21:01;;;;;;;0.80;0.20;;;8.60;99.90;;;;;;5063979;28;21076;-76
2022/09/28 01:23:53;;;;;;;0.40;0.20;;;8.70;99.90;;;;;;5065998;28;20547;-76
2022/09/28 01:26:48;;;;;;;0.73;0.60;;;8.70;99.90;;;;;;5060807;28;20584;-75
2022/09/28 01:29:28;;;;;;;0.70;0.30;;;8.80;99.90;;;;;;5062804;28;20528;-76
2022/09/28 01:32:05;;;;;;;0.50;0.20;;;8.80;99.90;;;;;;5061811;28;20466;-76
2022/09/28 01:34:41;;;;;;;0.50;0.40;;;8.80;99.90;;;;;;5063329;28;20921;-75
2022/09/28 01:37:11;;;;;;;0.40;0.30;;;8.70;99.90;;;;;;5061135;28;20561;-75
2022/09/28 01:39:42;;;;;;;0.40;0.30;;;8.70;99.90;;;;;;5064075;28;20483;-75
2022/09/28 01:42:16;;;;;;;0.60;0.30;;;8.50;99.90;;;;;;5063731;28;20483;-76
2022/09/28 01:44:45;;;;;;;3.50;0.37;;;8.30;99.90;;;;;;5064920;28;20495;-75
2022/09/28 01:47:15;;;;;;;2.43;0.30;;;8.20;99.90;;;;;;5057617;28;20933;-76
2022/09/28 01:49:45;;;;;;;0.70;0.40;;;8.20;99.90;;;;;;5063639;28;20525;-75
2022/09/28 01:52:18;;;;;;;0.67;0.50;;;8.20;99.90;;;;;;5057138;28;20986;-76
2022/09/28 01:54:50;;;;;;;0.50;0.30;;;8.20;99.90;;;;;;5061745;28;20462;-76
2022/09/28 01:57:22;;;;;;;0.50;0.30;;;8.10;99.90;;;;;;5064060;28;20522;-76
2022/09/28 02:00:05;;;;;;;1.47;0.30;;;8.00;99.90;;;;;;5062606;28;20520;-76
2022/09/28 02:02:37;;;;;;;0.40;0.30;;;8.00;99.90;;;;;;5061189;28;20486;-76
2022/09/28 02:05:11;;;;;;;0.40;0.30;;;7.90;99.90;;;;;;5060679;28;20466;-76
2022/09/28 02:07:42;;;;;;;0.50;0.30;;;7.90;99.90;;;;;;5065339;28;20489;-76
2022/09/28 02:10:13;;;;;;;0.40;0.30;;;7.80;99.90;;;;;;5063699;28;20912;-76
2022/09/28 02:12:45;;;;;;;0.40;0.30;;;7.80;99.90;;;;;;5065249;28;20543;-75
2022/09/28 02:15:17;;;;;;;0.43;0.40;;;7.90;99.90;;;;;;5060809;28;20551;-76
2022/09/28 02:17:45;;;;;;;0.40;0.30;;;7.80;99.90;;;;;;5063810;28;20503;-76
2022/09/28 02:20:12;;;;;;;0.60;0.50;;;7.70;99.90;;;;;;5062425;28;21286;-76
2022/09/28 02:22:43;;;;;;;0.40;0.30;;;7.70;99.90;;;;;;5061980;28;20491;-75
2022/09/28 02:25:13;;;;;;;0.40;0.30;;;7.70;99.90;;;;;;5063631;28;20509;-76
2022/09/28 02:27:50;;;;;;;2.50;0.60;;;7.70;99.90;;;;;;5063724;28;20487;-76
2022/09/28 02:30:18;;;;;;;1.77;0.30;;;7.60;99.90;;;;;;5059084;28;20494;-75
2022/09/28 02:32:49;;;;;;;0.90;0.40;;;7.60;99.90;;;;;;5064693;28;20490;-75
2022/09/28 02:35:18;;;;;;;0.50;0.40;;;7.50;99.90;;;;;;5063844;28;21202;-75
2022/09/28 02:37:45;;;;;;;0.40;0.20;;;7.60;99.90;;;;;;5058860;28;20946;-76
2022/09/28 02:40:14;;;;;;;0.40;0.30;;;7.60;99.90;;;;;;5063490;28;20483;-76
2022/09/28 02:42:50;;;;;;;0.50;0.30;;;7.70;99.90;;;;;;5062598;28;20551;-76
2022/09/28 02:45:36;;;;;;;0.50;0.30;;;7.60;99.90;;;;;;5061335;28;20556;-76
2022/09/28 02:48:19;;;;;;;0.87;0.30;;;7.70;99.90;;;;;;5057832;28;21162;-76
2022/09/28 02:50:59;;;;;;;0.40;0.33;;;7.60;99.90;;;;;;5060880;28;20561;-76
2022/09/28 02:53:45;;;;;;;0.40;0.33;;;7.60;99.90;;;;;;5066547;28;20533;-76
2022/09/28 02:56:29;;;;;;;0.50;0.30;;;7.70;99.90;;;;;;5059855;28;20515;-76
2022/09/28 02:59:08;;;;;;;0.50;0.40;;;7.80;99.90;;;;;;5060109;28;20537;-76
2022/09/28 03:01:47;;;;;;;0.40;0.30;;;7.80;99.90;;;;;;5059222;28;20459;-76
2022/09/28 03:04:27;;;;;;;1.23;0.40;;;8.00;99.90;;;;;;5060064;28;20917;-75
2022/09/28 03:06:59;;;;;;;0.40;0.37;;;8.00;99.90;;;;;;5060877;28;20554;-76
2022/09/28 03:09:33;;;;;;;1.13;0.30;;;8.00;99.90;;;;;;5064588;28;20528;-75
2022/09/28 03:12:06;;;;;;;0.93;0.40;;;7.90;99.90;;;;;;5061482;28;20467;-76
2022/09/28 03:14:34;;;;;;;0.50;0.30;;;8.00;99.90;;;;;;5063217;28;20487;-76
2022/09/28 03:17:01;;;;;;;0.50;0.40;;;8.00;99.90;;;;;;5060828;28;20592;-73
2022/09/28 03:19:32;;;;;;;0.47;0.30;;;8.00;99.90;;;;;;5062212;28;21047;-73
2022/09/28 03:21:59;;;;;;;0.40;0.30;;;8.00;99.90;;;;;;5061220;28;20463;-74
2022/09/28 03:24:26;;;;;;;0.50;0.43;;;8.00;99.90;;;;;;5063971;28;20553;-73
2022/09/28 03:26:53;;;;;;;0.40;0.30;;;8.00;99.90;;;;;;5063136;28;20523;-73
2022/09/28 03:29:20;;;;;;;0.50;0.40;;;7.80;99.90;;;;;;5060187;28;20447;-73
2022/09/28 03:31:48;;;;;;;0.90;0.30;;;7.70;99.90;;;;;;5060454;28;20956;-74
2022/09/28 03:34:15;;;;;;;0.57;0.40;;;7.60;99.90;;;;;;5061035;28;20466;-73
2022/09/28 03:36:43;;;;;;;0.40;0.30;;;7.60;99.90;;;;;;5063320;28;20520;-74
2022/09/28 03:39:09;;;;;;;1.23;0.40;;;7.50;99.90;;;;;;5057594;28;20483;-73
2022/09/28 03:41:37;;;;;;;0.70;0.30;;;7.50;99.90;;;;;;5063864;28;20468;-74
2022/09/28 03:44:04;;;;;;;0.57;0.43;;;7.50;99.90;;;;;;5058860;28;20912;-73
2022/09/28 03:46:31;;;;;;;0.80;0.33;;;7.50;99.90;;;;;;5057968;28;20557;-73
2022/09/28 03:48:59;;;;;;;0.50;0.40;;;7.50;99.90;;;;;;5060578;28;20463;-73
2022/09/28 03:51:26;;;;;;;1.07;0.40;;;7.60;99.90;;;;;;5058684;28;20479;-73
2022/09/28 03:53:53;;;;;;;0.80;0.30;;;7.50;99.90;;;;;;5056079;28;20464;-73
2022/09/28 03:56:20;;;;;;;0.90;0.47;;;7.40;99.90;;;;;;5061414;28;20521;-73
2022/09/28 03:58:47;;;;;;;0.60;0.40;;;7.50;99.90;;;;;;5060918;28;20999;-74
2022/09/28 04:01:15;;;;;;;2.80;0.53;;;7.40;99.90;;;;;;5061979;28;20450;-74
2022/09/28 04:03:43;;;;;;;0.50;0.40;;;7.20;99.90;;;;;;5058879;28;20931;-75
2022/09/28 04:06:12;;;;;;;1.30;0.50;;;7.20;99.90;;;;;;5061490;28;20455;-76
2022/09/28 04:08:39;;;;;;;0.40;0.37;;;7.20;99.90;;;;;;5061368;28;20553;-75
2022/09/28 04:11:06;;;;;;;1.20;0.40;;;6.90;99.90;;;;;;5051136;28;20963;-76
2022/09/28 04:13:33;;;;;;;0.50;0.40;;;6.90;99.90;;;;;;5054100;28;20542;-76
2022/09/28 04:16:01;;;;;;;0.83;0.50;;;6.80;99.90;;;;;;5047876;28;20482;-76
2022/09/28 04:18:29;;;;;;;0.90;0.50;;;6.80;99.90;;;;;;5061642;28;20459;-76
2022/09/28 04:21:05;;;;;;;3.80;0.60;;;6.70;99.90;;;;;;5060369;28;20522;-75
2022/09/28 04:23:34;;;;;;;0.80;0.50;;;6.60;99.90;;;;;;5063872;28;20546;-75
2022/09/28 04:26:01;;;;;;;1.30;0.60;;;6.50;99.90;;;;;;5057309;28;20489;-76
2022/09/28 04:31:16;;;;;;;2.10;0.60;;;6.40;99.90;;;;;;5058625;28;20446;-76
2022/09/28 04:33:43;;;;;;;1.37;0.40;;;6.40;99.90;;;;;;5060437;28;20492;-76
2022/09/28 04:36:10;;;;;;;0.80;0.80;;;6.40;99.90;;;;;;5059517;28;20481;-76
2022/09/28 04:38:39;;;;;;;1.40;1.10;;;6.40;99.90;;;;;;5057791;28;20549;-76
2022/09/28 04:41:07;;;;;;;1.13;0.73;;;6.50;99.90;;;;;;5057252;28;20484;-76
2022/09/28 04:43:34;;;;;;;1.50;0.70;;;6.60;99.90;;;;;;5061262;28;20467;-76
2022/09/28 04:46:04;;;;;;;1.10;0.70;;;6.70;99.90;;;;;;5058244;28;20467;-76
2022/09/28 04:48:32;;;;;;;1.93;0.70;;;6.70;99.90;;;;;;5062942;28;20517;-76
2022/09/28 04:51:00;;;;;;;0.80;0.80;;;6.70;99.90;;;;;;5060938;28;20524;-76
2022/09/28 04:53:28;;;;;;;0.57;0.50;;;6.70;99.90;;;;;;5062392;28;20520;-76
2022/09/28 04:55:58;;;;;;;5.93;0.70;;;6.80;99.90;;;;;;5067356;28;20540;-76
2022/09/28 04:58:26;;;;;;;3.10;1.00;;;6.80;99.90;;;;;;5061493;28;20468;-76
2022/09/28 05:00:53;;;;;;;1.30;0.60;;;6.80;99.90;;;;;;5057489;28;21133;-76
2022/09/28 05:03:21;;;;;;;0.90;0.60;;;6.90;99.90;;;;;;5064844;28;20940;-76
2022/09/28 05:05:48;;;;;;;0.60;0.60;;;6.80;99.90;;;;;;5058818;28;20460;-76
2022/09/28 05:08:16;;;;;;;1.00;0.80;;;6.90;99.90;;;;;;5054964;28;20777;-76
2022/09/28 05:10:43;;;;;;;0.80;0.80;;;7.00;99.90;;;;;;5060777;28;20550;-76
2022/09/28 05:13:13;;;;;;;0.73;0.50;;;7.00;99.90;;;;;;5057462;28;20501;-77
2022/09/28 05:15:41;;;;;;;0.70;0.50;;;7.10;99.90;;;;;;5066762;28;20535;-76
2022/09/28 05:18:09;;;;;;;0.60;0.60;;;7.20;99.90;;;;;;5061333;28;20483;-75
2022/09/28 05:20:40;;;;;;;2.57;0.60;;;7.30;99.90;;;;;;5063525;28;20576;-76
2022/09/28 05:23:10;;;;;;;0.83;0.70;;;7.30;99.90;;;;;;5066568;28;20599;-76
2022/09/28 05:25:37;;;;;;;0.90;0.63;;;7.40;99.90;;;;;;5065430;28;20979;-76
2022/09/28 05:28:04;;;;;;;0.67;0.40;;;7.40;99.90;;;;;;5061024;28;20935;-76
2022/09/28 05:30:33;;;;;;;0.60;0.60;;;7.40;99.90;;;;;;5064179;28;20462;-76
2022/09/28 05:33:00;;;;;;;0.60;0.50;;;7.40;99.90;;;;;;5057647;28;20461;-76
2022/09/28 05:35:28;;;;;;;1.17;0.47;;;7.40;99.90;;;;;;5068151;28;20444;-76
2022/09/28 05:37:55;;;;;;;0.90;0.70;;;7.50;99.90;;;;;;5067060;28;20477;-76
2022/09/28 05:40:22;;;;;;;0.80;0.60;;;7.70;99.90;;;;;;5061505;28;20514;-76
2022/09/28 05:42:49;;;;;;;1.03;0.70;;;7.80;99.90;;;;;;5066638;28;20530;-76
2022/09/28 05:45:16;;;;;;;0.90;0.50;;;7.80;99.90;;;;;;5055895;28;20471;-76
2022/09/28 05:47:46;;;;;;;0.80;0.70;;;8.00;99.90;;;;;;5060688;28;20975;-76
2022/09/28 05:50:14;;;;;;;0.67;0.60;;;8.10;99.90;;;;;;5063948;28;20447;-76
2022/09/28 05:52:43;;;;;;;0.63;0.63;;;8.10;99.90;;;;;;5062735;28;20517;-76
2022/09/28 05:55:11;;;;;;;1.97;0.80;;;8.20;99.90;;;;;;5062366;28;20546;-76
2022/09/28 05:57:38;;;;;;;1.00;0.60;;;8.10;99.90;;;;;;5048084;28;20491;-75
2022/09/28 06:00:07;;;;;;;0.93;0.50;;;8.10;99.90;;;;;;5049503;28;21156;-76
2022/09/28 06:02:35;;;;;;;1.20;0.53;;;8.00;99.90;;;;;;5051384;28;20486;-76
2022/09/28 06:05:04;;;;;;;3.97;0.50;;;7.90;99.90;;;;;;5050613;28;20464;-76
2022/09/28 06:07:31;;;;;;;1.57;0.90;;;7.80;99.90;;;;;;5048014;28;20514;-76
2022/09/28 06:09:58;;;;;;;0.80;0.70;;;7.90;99.90;;;;;;5048137;28;20514;-76
2022/09/28 06:12:25;;;;;;;1.13;1.13;;;8.00;99.90;;;;;;5049766;28;20462;-76
2022/09/28 06:14:52;;;;;;;1.00;0.80;;;8.10;99.90;;;;;;5055760;28;20578;-76
2022/09/28 06:17:19;;;;;;;1.50;0.60;;;8.10;99.90;;;;;;5049746;28;20474;-76
2022/09/28 06:19:46;;;;;;;0.93;0.60;;;8.10;99.90;;;;;;5063155;28;20511;-76
2022/09/28 06:22:15;;;;;;;0.80;0.50;;;8.10;99.90;;;;;;5059943;28;20556;-76
2022/09/28 06:24:41;;;;;;;1.60;0.60;;;8.10;99.90;;;;;;5062443;28;20517;-76
2022/09/28 06:27:08;;;;;;;2.63;1.20;;;8.10;99.90;;;;;;5056677;28;20518;-76
2022/09/28 06:29:35;;;;;;;0.60;0.60;;;8.20;99.90;;;;;;5061271;28;20495;-76
2022/09/28 06:32:02;;;;;;;1.17;0.60;;;8.20;99.90;;;;;;5057460;28;20510;-76
2022/09/28 06:34:29;;;;;;;7.33;0.70;;;8.20;99.90;;;;;;5048597;28;20451;-76
2022/09/28 06:36:57;;;;;;;24.97;22.33;;;8.30;99.90;;;;;;5051845;28;20460;-76
2022/09/28 06:39:25;;;;;;;4.50;2.50;;;8.50;99.90;;;;;;5046021;28;20495;-76
2022/09/28 06:41:52;;;;;;;12.17;8.33;;;8.60;99.90;;;;;;5055218;28;20488;-76
2022/09/28 06:44:19;;;;;;;1.67;0.80;;;8.60;99.90;;;;;;5049026;28;20539;-76
2022/09/28 06:46:46;;;;;;;2.37;1.60;;;8.70;99.90;;;;;;5049612;28;20554;-76
2022/09/28 06:49:13;;;;;;;2.10;1.20;;;9.00;99.90;;;;;;5050469;28;20533;-76
2022/09/28 06:51:40;;;;;;;5.53;4.20;;;9.10;99.90;;;;;;5050441;28;20540;-76
2022/09/28 06:54:07;;;;;;;3.93;3.63;;;9.10;99.90;;;;;;5045074;28;20464;-77
2022/09/28 06:56:35;;;;;;;4.97;4.57;;;9.30;99.90;;;;;;5049167;28;20970;-76
2022/09/28 06:59:03;;;;;;;3.70;3.33;;;9.40;99.90;;;;;;5049344;28;20457;-75
2022/09/28 07:01:30;;;;;;;1.77;1.67;;;9.60;99.90;;;;;;5058366;28;20516;-75
2022/09/28 07:03:57;;;;;;;3.90;3.20;;;9.80;99.90;;;;;;5057687;28;20491;-75
2022/09/28 07:06:25;;;;;;;2.47;2.20;;;10.10;99.90;;;;;;5059233;28;20468;-75
2022/09/28 07:08:52;;;;;;;6.93;6.47;;;10.30;99.90;;;;;;5060040;28;20550;-76
2022/09/28 07:11:20;;;;;;;1.63;0.70;;;10.50;99.90;;;;;;5058439;28;20916;-75
2022/09/28 07:13:48;;;;;;;0.53;0.50;;;10.90;99.90;;;;;;5064503;28;20549;-76
2022/09/28 07:16:15;;;;;;;0.60;0.50;;;10.90;99.90;;;;;;5060416;28;20948;-76
2022/09/28 07:18:42;;;;;;;0.53;0.40;;;10.90;99.90;;;;;;5057433;28;20528;-76
2022/09/28 07:21:09;;;;;;;0.60;0.60;;;10.70;99.90;;;;;;5061776;28;20564;-76
2022/09/28 07:23:36;;;;;;;0.50;0.43;;;10.60;99.90;;;;;;5060633;28;20440;-76
2022/09/28 07:26:04;;;;;;;1.73;1.63;;;10.50;99.90;;;;;;5056762;28;20491;-76
2022/09/28 07:28:32;;;;;;;1.27;0.80;;;10.50;99.90;;;;;;5062664;28;20448;-76
2022/09/28 07:31:02;;;;;;;1.73;0.70;;;10.80;99.90;;;;;;5051602;28;20468;-75
2022/09/28 07:33:31;;;;;;;0.60;0.60;;;11.10;99.90;;;;;;5046043;28;20526;-76
2022/09/28 07:35:59;;;;;;;1.00;0.40;;;11.30;99.90;;;;;;5047175;28;20461;-75
2022/09/28 07:38:26;;;;;;;1.67;0.90;;;11.40;99.90;;;;;;5046678;28;20488;-75
2022/09/28 07:41:12;;;;;;;6.50;3.10;;;11.50;99.90;;;;;;5045415;28;20481;-75
2022/09/28 07:43:40;;;;;;;11.20;6.07;;;11.80;99.90;;;;;;5053623;28;20466;-75
2022/09/28 07:46:10;;;;;;;0.63;0.43;;;11.80;99.90;;;;;;5049643;28;20952;-76
2022/09/28 07:48:39;;;;;;;1.43;0.87;;;12.10;99.90;;;;;;5055008;28;20451;-75
2022/09/28 07:51:07;;;;;;;3.00;1.33;;;11.90;99.90;;;;;;5050987;28;20930;-75
2022/09/28 07:53:36;;;;;;;1.47;0.73;;;12.10;99.90;;;;;;5047660;28;20531;-75
2022/09/28 07:56:06;;;;;;;2.10;0.50;;;12.20;99.90;;;;;;5050677;28;20472;-76
2022/09/28 07:58:34;;;;;;;3.10;1.13;;;12.40;99.90;;;;;;5050843;28;20564;-76
2022/09/28 08:01:05;;;;;;;5.73;1.30;;;12.70;99.90;;;;;;5048515;28;20523;-75
2022/09/28 08:03:34;;;;;;;0.40;0.40;;;12.90;99.90;;;;;;5046210;28;20463;-76
2022/09/28 08:06:03;;;;;;;0.50;0.40;;;12.80;99.90;;;;;;5049038;28;20570;-75
2022/09/28 08:08:30;;;;;;;1.60;0.40;;;12.60;99.90;;;;;;5045679;28;20590;-75
2022/09/28 08:10:57;;;;;;;0.50;0.40;;;12.60;99.90;;;;;;5049676;28;20487;-75
2022/09/28 08:13:25;;;;;;;0.60;0.40;;;12.50;99.90;;;;;;5045873;28;20467;-76
2022/09/28 08:15:53;;;;;;;0.90;0.40;;;12.80;99.90;;;;;;5048203;28;20860;-75
2022/09/28 08:18:20;;;;;;;0.70;0.40;;;12.80;99.90;;;;;;5050610;28;20588;-75
2022/09/28 08:23:37;;;;;;;0.40;0.30;;;12.90;99.90;;;;;;5053489;28;20477;-76
2022/09/28 08:26:05;;;;;;;0.40;0.30;;;13.00;99.90;;;;;;5059497;28;20586;-75
2022/09/28 08:28:33;;;;;;;0.70;0.30;;;13.30;99.90;;;;;;5054600;28;20497;-75
2022/09/28 08:31:01;;;;;;;0.83;0.30;;;13.40;99.90;;;;;;5062902;28;20853;-76
2022/09/28 08:33:29;;;;;;;0.80;0.50;;;13.40;99.90;;;;;;5063930;28;20593;-75
2022/09/28 08:35:58;;;;;;;0.50;0.30;;;13.40;99.90;;;;;;5055640;28;20525;-75
2022/09/28 08:38:25;;;;;;;0.50;0.30;;;13.40;99.90;;;;;;5051223;28;20489;-76
2022/09/28 08:41:03;;;;;;;0.60;0.30;;;13.40;99.90;;;;;;5046741;28;21010;-75
2022/09/28 08:44:00;;;;;;;0.73;0.30;;;13.60;99.90;;;;;;5047998;28;20488;-75
2022/09/28 08:46:31;;;;;;;1.00;0.40;;;13.70;99.90;;;;;;5047259;28;20446;-75
2022/09/28 08:49:03;;;;;;;1.70;0.40;;;13.80;99.90;;;;;;5062740;28;20444;-78
2022/09/28 08:51:38;;;;;;;0.97;0.50;;;13.90;99.90;;;;;;5067214;28;20457;-76
2022/09/28 08:54:14;;;;;;;0.57;0.37;;;13.90;99.90;;;;;;5060670;28;20468;-76
2022/09/28 08:56:47;;;;;;;1.07;0.40;;;13.60;99.90;;;;;;5054791;28;20521;-76
2022/09/28 08:59:18;;;;;;;0.40;0.30;;;13.70;99.90;;;;;;5051670;28;20556;-77
2022/09/28 09:01:50;;;;;;;0.40;0.30;;;13.50;99.90;;;;;;5061874;28;20511;-76
2022/09/28 09:04:18;;;;;;;1.80;0.30;;;13.20;99.90;;;;;;5064272;28;20935;-77
2022/09/28 09:07:12;;;;;;;0.60;0.40;;;13.20;99.90;;;;;;5060742;28;20567;-77
2022/09/28 09:09:50;;;;;;;0.73;0.73;;;13.40;99.90;;;;;;5060317;28;20454;-77
2022/09/28 09:12:25;;;;;;;0.40;0.30;;;13.90;99.90;;;;;;5049287;28;20485;-77
2022/09/28 09:15:37;;;;;;;0.60;0.33;;;14.00;99.90;;;;;;5049882;28;20467;-77
2022/09/28 09:18:17;;;;;;;0.40;0.30;;;14.10;99.90;;;;;;5065460;28;20446;-77
2022/09/28 09:20:50;;;;;;;1.03;0.50;;;14.20;99.90;;;;;;5057227;28;20515;-77
2022/09/28 09:23:27;;;;;;;0.53;0.50;;;14.30;99.90;;;;;;5062651;28;20520;-77
2022/09/28 09:26:00;;;;;;;0.50;0.30;;;14.40;99.90;;;;;;5065335;28;20525;-77
2022/09/28 09:28:57;;;;;;;2.40;0.37;;;14.70;99.90;;;;;;5053921;28;20886;-77
2022/09/28 09:31:39;;;;;;;1.70;0.30;;;15.20;99.90;;;;;;5062591;28;20488;-77
2022/09/28 09:34:30;;;;;;;0.40;0.40;;;15.60;99.90;;;;;;5063317;28;20475;-75
2022/09/28 09:37:15;;;;;;;0.50;0.30;;;15.70;99.70;;;;;;5064178;28;20515;-75
2022/09/28 09:39:59;;;;;;;1.40;0.50;;;16.10;99.90;;;;;;5053625;28;20465;-75
2022/09/28 09:42:43;;;;;;;1.07;0.77;;;16.60;99.90;;;;;;5057994;28;20552;-75
2022/09/28 09:45:43;;;;;;;1.53;0.50;;;16.50;97.30;;;;;;5064771;28;20464;-75
2022/09/28 09:48:17;;;;;;;0.40;0.30;;;16.40;95.60;;;;;;5060743;28;20502;-75
2022/09/28 09:50:49;;;;;;;0.93;0.30;;;16.30;95.60;;;;;;5063645;28;20462;-75
2022/09/28 09:53:24;;;;;;;0.50;0.40;;;16.40;98.20;;;;;;5072797;28;20465;-75
2022/09/28 09:55:57;;;;;;;0.50;0.40;;;16.40;96.80;;;;;;5063434;28;20522;-74
2022/09/28 09:58:29;;;;;;;0.67;0.37;;;16.20;99.10;;;;;;5057440;28;20473;-77
2022/09/28 10:01:05;;;;;;;2.50;0.50;;;15.90;98.90;;;;;;5053733;28;20525;-77
2022/09/28 10:03:34;;;;;;;0.40;0.30;;;15.90;97.50;;;;;;5046948;28;21153;-75
2022/09/28 10:06:05;;;;;;;0.50;0.30;;;15.60;97.00;;;;;;5057412;28;20890;-75
2022/09/28 10:08:37;;;;;;;0.40;0.30;;;15.80;99.50;;;;;;5062133;28;20602;-75
2022/09/28 10:11:11;;;;;;;0.60;0.30;;;15.80;99.40;;;;;;5064382;28;20995;-75
2022/09/28 10:13:39;;;;;;;2.57;0.47;;;15.90;97.80;;;;;;5060999;28;20547;-75
2022/09/28 10:16:06;;;;;;;0.40;0.30;;;15.60;99.00;;;;;;5066384;28;20492;-75
2022/09/28 10:18:33;;;;;;;0.50;0.40;;;15.70;99.70;;;;;;5054766;28;20470;-76
2022/09/28 10:21:00;;;;;;;2.03;0.30;;;15.90;99.90;;;;;;5061479;28;20514;-75
2022/09/28 10:23:32;;;;;;;0.40;0.30;;;16.00;99.90;;;;;;5062461;28;20461;-77
2022/09/28 10:26:03;;;;;;;0.40;0.30;;;15.70;99.90;;;;;;5063502;28;20505;-77
2022/09/28 10:28:39;;;;;;;0.50;0.30;;;15.50;99.90;;;;;;5055432;28;20490;-77
2022/09/28 10:31:36;;;;;;;0.60;0.30;;;15.30;99.90;;;;;;5063107;28;20517;-77
2022/09/28 10:34:04;;;;;;;0.40;0.30;;;15.10;99.90;;;;;;5054850;28;20604;-77
2022/09/28 10:36:37;;;;;;;0.50;0.40;;;14.80;99.90;;;;;;5061813;28;20467;-77
2022/09/28 10:39:05;;;;;;;0.63;0.63;;;14.80;99.90;;;;;;5066929;28;20516;-77
2022/09/28 10:41:32;;;;;;;0.40;0.40;;;14.60;99.90;;;;;;5064198;28;20489;-77
2022/09/28 10:44:09;;;;;;;1.47;0.40;;;14.50;99.90;;;;;;5063807;28;20472;-77
2022/09/28 10:46:38;;;;;;;1.33;0.40;;;14.50;99.90;;;;;;5055962;28;20560;-78
2022/09/28 10:49:12;;;;;;;0.50;0.40;;;14.70;99.90;;;;;;5063132;28;20524;-77
2022/09/28 10:51:43;;;;;;;0.73;0.40;;;14.90;99.90;;;;;;5064657;28;20474;-77
2022/09/28 10:54:16;;;;;;;0.60;0.60;;;15.10;99.90;;;;;;5065321;28;20483;-77
2022/09/28 10:56:43;;;;;;;1.23;0.40;;;15.30;99.90;;;;;;5063886;28;20540;-77
2022/09/28 10:59:42;;;;;;;0.40;0.33;;;15.50;99.90;;;;;;5066109;28;20450;-77
2022/09/28 11:02:21;;;;;;;0.53;0.47;;;15.50;99.90;;;;;;5016850;28;20931;-77
2022/09/28 11:04:53;;;;;;;0.50;0.40;;;15.10;99.90;;;;;;5053281;28;21270;-77
2022/09/28 11:07:23;;;;;;;0.60;0.50;;;15.20;99.90;;;;;;5063273;28;20619;-77
2022/09/28 11:09:52;;;;;;;0.47;0.40;;;15.20;99.90;;;;;;5060160;28;20976;-77
2022/09/28 11:12:21;;;;;;;0.53;0.40;;;15.20;99.90;;;;;;5063192;28;20500;-77
2022/09/28 11:14:56;;;;;;;0.50;0.40;;;15.10;99.90;;;;;;5065340;28;20451;-77
2022/09/28 11:17:29;;;;;;;0.77;0.40;;;15.10;99.90;;;;;;5062759;28;20452;-77
2022/09/28 11:19:57;;;;;;;1.23;0.50;;;15.30;99.90;;;;;;5051358;28;20493;-77
2022/09/28 11:22:28;;;;;;;0.40;0.40;;;15.30;99.90;;;;;;5062933;28;20519;-77
2022/09/28 11:25:19;;;;;;;0.50;0.40;;;15.30;99.90;;;;;;5061888;28;20459;-77
2022/09/28 11:27:57;;;;;;;0.60;0.40;;;15.10;99.90;;;;;;5065372;28;20455;-77
2022/09/28 11:30:29;;;;;;;0.50;0.40;;;15.00;99.90;;;;;;5061893;28;20541;-77
2022/09/28 11:33:02;;;;;;;0.50;0.40;;;14.90;99.90;;;;;;5064030;28;20543;-78
2022/09/28 11:35:41;;;;;;;0.60;0.40;;;15.40;99.90;;;;;;5050105;28;20443;-77
2022/09/28 11:38:21;;;;;;;0.40;0.30;;;15.40;99.90;;;;;;5059447;28;20483;-77
2022/09/28 11:41:00;;;;;;;0.50;0.50;;;15.30;99.90;;;;;;5065098;28;20450;-77
2022/09/28 11:43:59;;;;;;;0.80;0.40;;;15.10;99.90;;;;;;5048542;28;21163;-77
2022/09/28 11:46:33;;;;;;;0.60;0.50;;;15.10;99.90;;;;;;5060092;28;20799;-77
2022/09/28 11:49:06;;;;;;;1.60;0.53;;;15.00;99.90;;;;;;5063771;28;22234;-77
2022/09/28 11:51:40;;;;;;;0.50;0.40;;;15.10;99.90;;;;;;5063368;28;20446;-77
2022/09/28 11:54:14;;;;;;;1.10;0.40;;;15.00;99.90;;;;;;5064266;28;20474;-77
2022/09/28 11:56:44;;;;;;;1.07;0.60;;;14.90;99.90;;;;;;5054767;28;20556;-77
2022/09/28 11:59:16;;;;;;;0.50;0.50;;;14.90;99.90;;;;;;5058612;28;20444;-77
2022/09/28 12:01:48;;;;;;;2.27;0.50;;;14.90;99.90;;;;;;5057767;28;20512;-77
2022/09/28 12:04:20;;;;;;;0.87;0.40;;;15.10;99.90;;;;;;5058246;28;20841;-77
2022/09/28 12:06:51;;;;;;;0.40;0.30;;;15.00;99.90;;;;;;5048411;28;20467;-77
2022/09/28 12:09:23;;;;;;;0.50;0.40;;;15.10;99.90;;;;;;5065454;28;20480;-77
2022/09/28 12:11:56;;;;;;;0.40;0.30;;;15.40;99.90;;;;;;5061092;28;20503;-77
2022/09/28 12:14:28;;;;;;;0.50;0.50;;;15.50;99.90;;;;;;5047651;28;20451;-77
2022/09/28 12:17:02;;;;;;;0.87;0.50;;;15.40;99.90;;;;;;5061839;28;20491;-77
2022/09/28 12:19:33;;;;;;;1.13;0.40;;;15.60;99.90;;;;;;5043935;28;20473;-77
2022/09/28 12:22:04;;;;;;;2.10;0.40;;;15.70;99.90;;;;;;5057761;28;21215;-77
2022/09/28 12:24:34;;;;;;;1.37;0.40;;;15.70;99.90;;;;;;5062180;28;20510;-77
2022/09/28 12:27:07;;;;;;;2.30;0.60;;;15.60;99.90;;;;;;5062750;28;20483;-77
2022/09/28 12:29:41;;;;;;;0.80;0.40;;;15.70;99.90;;;;;;5060690;28;20679;-77
2022/09/28 12:32:18;;;;;;;0.50;0.40;;;15.60;99.90;;;;;;5061925;28;20459;-77
2022/09/28 12:34:45;;;;;;;1.87;0.50;;;15.70;99.90;;;;;;5067896;28;20507;-77
2022/09/28 12:37:27;;;;;;;5.70;0.70;;;15.40;99.90;;;;;;5062646;28;20552;-75
2022/09/28 12:40:14;;;;;;;0.50;0.40;;;15.70;99.90;;;;;;5066803;28;20536;-75
2022/09/28 12:42:55;;;;;;;0.93;0.73;;;15.60;99.90;;;;;;5057321;28;20579;-75
2022/09/28 12:45:37;;;;;;;1.00;0.63;;;15.50;99.90;;;;;;5063054;28;20465;-75
2022/09/28 12:48:31;;;;;;;0.90;0.80;;;15.60;99.90;;;;;;5064199;28;20559;-75
2022/09/28 12:51:04;;;;;;;0.50;0.43;;;15.90;99.90;;;;;;5063937;28;20500;-76
2022/09/28 12:53:53;;;;;;;0.83;0.70;;;16.20;99.90;;;;;;5065849;28;20522;-76
2022/09/28 12:56:29;;;;;;;0.50;0.50;;;16.40;99.90;;;;;;5070084;28;20522;-77
2022/09/28 12:59:04;;;;;;;0.70;0.70;;;15.80;99.90;;;;;;5066904;28;20999;-78
2022/09/28 13:01:53;;;;;;;0.90;0.60;;;15.80;99.90;;;;;;5069566;28;20449;-78
2022/09/28 13:04:51;;;;;;;0.50;0.40;;;15.90;99.90;;;;;;5070814;28;20444;-78
2022/09/28 13:07:28;;;;;;;1.20;0.50;;;15.80;99.90;;;;;;5068498;28;20542;-78
2022/09/28 13:10:06;;;;;;;0.60;0.37;;;15.70;99.90;;;;;;5070391;28;20453;-78
2022/09/28 13:12:44;;;;;;;0.60;0.40;;;15.80;99.90;;;;;;5061885;28;20459;-79
2022/09/28 13:15:26;;;;;;;3.23;0.50;;;15.60;99.90;;;;;;5055993;28;20456;-78
2022/09/28 13:18:01;;;;;;;0.50;0.50;;;15.50;99.90;;;;;;5068311;28;20458;-78
2022/09/28 13:20:39;;;;;;;0.70;0.60;;;15.50;99.90;;;;;;5061521;28;20474;-77
2022/09/28 13:23:18;;;;;;;2.70;0.87;;;15.50;99.90;;;;;;5055831;28;21039;-77